createdAt,value
2023-03-22T00:01:43.818Z,100579.00
2023-03-22T00:04:11.426Z,100579.38
2023-03-22T00:06:38.983Z,100570.34
2023-03-22T00:09:06.573Z,100572.78
2023-03-22T00:11:34.112Z,100562.75
2023-03-22T00:14:03.010Z,100567.91
2023-03-22T00:16:30.597Z,100562.34
2023-03-22T00:18:58.142Z,100560.09
2023-03-22T00:21:25.806Z,100550.25
2023-03-22T00:23:53.374Z,100550.06
2023-03-22T00:26:20.966Z,100554.56
2023-03-22T00:28:48.491Z,100540.41
2023-03-22T00:31:17.428Z,100540.59
2023-03-22T00:33:45.288Z,100546.16
2023-03-22T00:36:13.700Z,100536.91
2023-03-22T00:38:44.879Z,100541.00
2023-03-22T00:41:15.946Z,100536.31
2023-03-22T00:43:45.893Z,100525.41
2023-03-22T00:46:14.589Z,100532.19
2023-03-22T00:48:43.953Z,100525.22
2023-03-22T00:51:12.067Z,100526.44
2023-03-22T00:53:42.996Z,100530.34
2023-03-22T00:56:13.665Z,100524.78
2023-03-22T00:58:46.258Z,100521.91
2023-03-22T01:01:14.497Z,100522.50
2023-03-22T01:03:44.515Z,100511.00
2023-03-22T01:06:15.829Z,100512.47
2023-03-22T01:08:43.600Z,100516.56
2023-03-22T01:11:11.487Z,100507.97
2023-03-22T01:13:41.502Z,100510.81
2023-03-22T01:16:10.610Z,100502.22
2023-03-22T01:18:38.582Z,100495.06
2023-03-22T01:21:09.028Z,100492.16
2023-03-22T01:23:36.902Z,100498.53
2023-03-22T01:26:05.151Z,100490.31
2023-03-22T01:28:33.074Z,100486.19
2023-03-22T01:31:02.538Z,100480.03
2023-03-22T01:33:31.685Z,100479.81
2023-03-22T01:36:00.282Z,100476.31
2023-03-22T01:38:30.819Z,100473.47
2023-03-22T01:41:00.819Z,100463.81
2023-03-22T01:43:31.574Z,100469.16
2023-03-22T01:46:00.080Z,100459.69
2023-03-22T01:48:34.369Z,100457.03
2023-03-22T01:51:08.672Z,100451.09
2023-03-22T01:53:49.720Z,100448.00
2023-03-22T01:56:20.535Z,100452.44
2023-03-22T01:58:49.599Z,100460.31
2023-03-22T02:01:22.391Z,100452.91
2023-03-22T02:03:56.442Z,100445.50
2023-03-22T02:06:25.370Z,100441.81
2023-03-22T02:09:04.014Z,100443.44
2023-03-22T02:11:34.734Z,100441.41
2023-03-22T02:14:27.202Z,100437.69
2023-03-22T02:17:14.246Z,100439.09
2023-03-22T02:20:25.362Z,100432.94
2023-03-22T02:23:24.746Z,100420.63
2023-03-22T02:26:21.337Z,100422.47
2023-03-22T02:28:54.539Z,100422.47
2023-03-22T02:31:50.954Z,100422.91
2023-03-22T02:34:50.554Z,100422.28
2023-03-22T02:37:42.455Z,100419.44
2023-03-22T02:40:17.502Z,100417.97
2023-03-22T02:42:57.083Z,100409.38
2023-03-22T02:45:31.010Z,100408.31
2023-03-22T02:48:06.507Z,100399.06
2023-03-22T02:50:41.572Z,100401.53
2023-03-22T02:53:15.778Z,100387.13
2023-03-22T02:55:50.232Z,100395.34
2023-03-22T02:58:21.274Z,100402.31
2023-03-22T03:00:54.290Z,100394.91
2023-03-22T03:03:25.469Z,100389.97
2023-03-22T03:05:57.458Z,100395.47
2023-03-22T03:08:27.067Z,100392.41
2023-03-22T03:10:56.562Z,100391.81
2023-03-22T03:13:24.314Z,100371.47
2023-03-22T03:15:55.162Z,100382.56
2023-03-22T03:18:35.686Z,100383.31
2023-03-22T03:21:16.968Z,100371.66
2023-03-22T03:23:55.990Z,100380.06
2023-03-22T03:26:34.532Z,100378.41
2023-03-22T03:29:06.559Z,100378.38
2023-03-22T03:31:43.075Z,100374.28
2023-03-22T03:34:18.069Z,100374.88
2023-03-22T03:36:51.851Z,100372.59
2023-03-22T03:39:21.898Z,100374.28
2023-03-22T03:41:52.702Z,100364.88
2023-03-22T03:44:20.969Z,100362.78
2023-03-22T03:46:49.265Z,100366.13
2023-03-22T03:49:17.965Z,100368.94
2023-03-22T03:51:50.957Z,100362.22
2023-03-22T03:54:18.696Z,100362.63
2023-03-22T03:56:47.637Z,100361.97
2023-03-22T03:59:17.085Z,100366.97
2023-03-22T04:01:51.641Z,100368.66
2023-03-22T04:04:29.160Z,100361.25
2023-03-22T04:07:03.477Z,100359.25
2023-03-22T04:09:33.382Z,100366.59
2023-03-22T04:12:23.796Z,100359.41
2023-03-22T04:15:13.759Z,100362.19
2023-03-22T04:17:43.328Z,100357.97
2023-03-22T04:20:13.540Z,100360.34
2023-03-22T04:22:42.556Z,100359.16
2023-03-22T04:25:12.759Z,100351.78
2023-03-22T04:27:50.901Z,100354.16
2023-03-22T04:30:22.173Z,100349.72
2023-03-22T04:33:06.794Z,100343.53
2023-03-22T04:36:02.055Z,100338.16
2023-03-22T04:38:37.260Z,100344.97
2023-03-22T04:41:05.422Z,100349.44
2023-03-22T04:43:39.389Z,100350.50
2023-03-22T04:46:12.608Z,100337.56
2023-03-22T04:48:47.130Z,100330.00
2023-03-22T04:51:14.844Z,100342.38
2023-03-22T04:53:52.420Z,100335.78
2023-03-22T04:56:20.200Z,100331.69
2023-03-22T04:58:50.153Z,100337.22
2023-03-22T05:01:19.705Z,100335.66
2023-03-22T05:03:53.287Z,100331.47
2023-03-22T05:06:23.494Z,100334.94
2023-03-22T05:09:04.462Z,100332.91
2023-03-22T05:11:31.978Z,100326.38
2023-03-22T05:14:13.351Z,100323.88
2023-03-22T05:16:43.322Z,100325.13
2023-03-22T05:19:13.804Z,100327.56
2023-03-22T05:21:45.030Z,100325.13
2023-03-22T05:24:13.085Z,100325.53
2023-03-22T05:26:43.134Z,100328.78
2023-03-22T05:29:12.738Z,100336.53
2023-03-22T05:32:00.276Z,100340.88
2023-03-22T05:34:35.209Z,100338.44
2023-03-22T05:37:10.950Z,100346.19
2023-03-22T05:39:54.418Z,100337.56
2023-03-22T05:42:27.189Z,100341.88
2023-03-22T05:44:55.262Z,100344.50
2023-03-22T05:47:24.146Z,100342.06
2023-03-22T05:50:00.884Z,100339.09
2023-03-22T05:52:30.262Z,100341.00
2023-03-22T05:55:18.351Z,100334.94
2023-03-22T05:57:51.255Z,100335.78
2023-03-22T06:00:19.903Z,100327.56
2023-03-22T06:03:08.929Z,100338.44
2023-03-22T06:05:41.659Z,100336.88
2023-03-22T06:08:10.058Z,100332.75
2023-03-22T06:10:37.786Z,100331.91
2023-03-22T06:13:06.133Z,100326.94
2023-03-22T06:15:35.134Z,100316.72
2023-03-22T06:18:09.889Z,100316.25
2023-03-22T06:20:42.484Z,100317.84
2023-03-22T06:23:21.175Z,100327.50
2023-03-22T06:25:49.835Z,100323.56
2023-03-22T06:28:18.649Z,100321.06
2023-03-22T06:30:51.369Z,100318.38
2023-03-22T06:33:30.202Z,100315.00
2023-03-22T06:36:04.737Z,100327.91
2023-03-22T06:38:44.006Z,100324.59
2023-03-22T06:41:11.580Z,100319.47
2023-03-22T06:43:39.557Z,100330.50
2023-03-22T06:46:20.605Z,100334.63
2023-03-22T06:48:58.929Z,100323.00
2023-03-22T06:51:26.494Z,100332.34
2023-03-22T06:53:54.233Z,100318.94
2023-03-22T06:56:22.065Z,100324.03
2023-03-22T06:58:54.680Z,100319.66
2023-03-22T07:01:22.377Z,100314.75
2023-03-22T07:03:50.138Z,100314.94
2023-03-22T07:06:23.137Z,100319.97
2023-03-22T07:08:52.206Z,100323.09
2023-03-22T07:11:25.845Z,100316.91
2023-03-22T07:13:59.042Z,100319.38
2023-03-22T07:16:31.907Z,100313.34
2023-03-22T07:19:01.989Z,100313.59
2023-03-22T07:21:31.152Z,100312.09
2023-03-22T07:24:03.169Z,100306.69
2023-03-22T07:26:32.815Z,100299.75
2023-03-22T07:29:02.454Z,100288.91
2023-03-22T07:31:35.587Z,100289.06
2023-03-22T07:34:06.679Z,100281.28
2023-03-22T07:36:44.475Z,100280.75
2023-03-22T07:39:13.183Z,100276.28
2023-03-22T07:41:45.228Z,100282.47
2023-03-22T07:44:35.922Z,100281.19
2023-03-22T07:47:40.079Z,100277.38
2023-03-22T07:50:28.274Z,100273.59
2023-03-22T07:52:59.287Z,100264.22
2023-03-22T07:55:26.994Z,100257.13
2023-03-22T07:57:54.925Z,100253.19
2023-03-22T08:00:23.593Z,100251.53
2023-03-22T08:03:02.654Z,100252.28
2023-03-22T08:05:54.667Z,100238.72
2023-03-22T08:08:23.677Z,100225.16
2023-03-22T08:10:51.977Z,100222.22
2023-03-22T08:13:19.844Z,100216.41
2023-03-22T08:15:47.524Z,100213.44
2023-03-22T08:18:15.424Z,100214.00
2023-03-22T08:20:45.281Z,100202.25
2023-03-22T08:23:17.956Z,100199.72
2023-03-22T08:26:13.293Z,100206.69
2023-03-22T08:28:41.132Z,100198.06
2023-03-22T08:31:14.726Z,100195.06
2023-03-22T08:33:45.636Z,100189.94
2023-03-22T08:36:16.280Z,100189.00
2023-03-22T08:38:49.808Z,100187.03
2023-03-22T08:41:20.923Z,100184.69
2023-03-22T08:43:48.640Z,100197.19
2023-03-22T08:46:16.284Z,100184.59
2023-03-22T08:48:50.450Z,100188.53
2023-03-22T08:51:24.040Z,100183.06
2023-03-22T08:54:03.843Z,100177.00
2023-03-22T08:56:51.474Z,100176.31
2023-03-22T08:59:54.421Z,100180.34
2023-03-22T09:02:38.586Z,100179.34
2023-03-22T09:05:06.952Z,100180.16
2023-03-22T09:07:34.803Z,100167.16
2023-03-22T09:10:08.941Z,100163.69
2023-03-22T09:12:41.104Z,100162.59
2023-03-22T09:15:09.605Z,100163.44
2023-03-22T09:17:40.186Z,100170.31
2023-03-22T09:20:12.800Z,100163.31
2023-03-22T09:22:43.167Z,100155.47
2023-03-22T09:25:13.458Z,100155.19
2023-03-22T09:27:45.804Z,100164.47
2023-03-22T09:30:14.110Z,100161.19
2023-03-22T09:32:41.830Z,100154.03
2023-03-22T09:35:12.138Z,100151.41
2023-03-22T09:37:53.215Z,100154.41
2023-03-22T09:40:22.225Z,100151.34
2023-03-22T09:42:55.763Z,100150.84
2023-03-22T09:45:35.130Z,100145.22
2023-03-22T09:48:08.109Z,100143.41
2023-03-22T09:50:44.768Z,100142.03
2023-03-22T09:53:15.271Z,100136.75
2023-03-22T09:55:48.248Z,100142.81
2023-03-22T09:58:24.792Z,100135.31
2023-03-22T10:00:58.452Z,100139.81
2023-03-22T10:03:43.779Z,100136.97
2023-03-22T10:06:18.805Z,100146.81
2023-03-22T10:08:58.464Z,100122.16
2023-03-22T10:11:37.391Z,100122.34
2023-03-22T10:14:23.380Z,100120.22
2023-03-22T10:16:56.453Z,100119.56
2023-03-22T10:19:28.460Z,100123.94
2023-03-22T10:21:59.005Z,100131.38
2023-03-22T10:24:30.509Z,100131.44
2023-03-22T10:26:58.223Z,100140.47
2023-03-22T10:29:34.743Z,100128.03
2023-03-22T10:32:15.650Z,100130.25
2023-03-22T10:34:44.353Z,100129.84
2023-03-22T10:37:16.278Z,100128.06
2023-03-22T10:39:46.279Z,100119.56
2023-03-22T10:42:16.611Z,100135.69
2023-03-22T10:44:49.280Z,100146.19
2023-03-22T10:47:18.856Z,100131.63
2023-03-22T10:49:54.637Z,100135.84
2023-03-22T10:52:36.753Z,100135.34
2023-03-22T10:55:05.474Z,100131.16
2023-03-22T10:57:32.983Z,100138.63
2023-03-22T11:00:07.758Z,100130.31
2023-03-22T11:02:35.670Z,100126.66
2023-03-22T11:05:07.088Z,100127.38
2023-03-22T11:07:36.375Z,100124.13
2023-03-22T11:10:22.629Z,100130.28
2023-03-22T11:12:53.425Z,100123.97
2023-03-22T11:15:33.474Z,100136.47
2023-03-22T11:18:05.702Z,100136.91
2023-03-22T11:20:34.226Z,100141.84
2023-03-22T11:23:05.100Z,100144.75
2023-03-22T11:25:35.652Z,100148.66
2023-03-22T11:28:09.975Z,100143.06
2023-03-22T11:30:39.769Z,100149.63
2023-03-22T11:33:18.516Z,100143.06
2023-03-22T11:35:48.158Z,100145.84
2023-03-22T11:38:31.030Z,100150.81
2023-03-22T11:41:02.534Z,100161.25
2023-03-22T11:43:35.674Z,100144.25
2023-03-22T11:46:05.790Z,100144.69
2023-03-22T11:48:35.244Z,100143.41
2023-03-22T11:51:09.681Z,100143.19
2023-03-22T11:53:40.462Z,100147.66
2023-03-22T11:56:12.159Z,100131.09
2023-03-22T11:58:55.528Z,100126.88
2023-03-22T12:01:34.441Z,100123.38
2023-03-22T12:04:03.947Z,100111.69
2023-03-22T12:06:35.496Z,100115.09
2023-03-22T12:09:07.542Z,100115.03
2023-03-22T12:11:38.589Z,100111.19
2023-03-22T12:14:09.468Z,100111.59
2023-03-22T12:16:45.580Z,100117.56
2023-03-22T12:19:23.420Z,100130.56
2023-03-22T12:21:52.753Z,100113.50
2023-03-22T12:24:28.112Z,100111.25
2023-03-22T12:27:01.017Z,100110.25
2023-03-22T12:29:29.939Z,100107.44
2023-03-22T12:32:03.337Z,100110.88
2023-03-22T12:34:37.722Z,100114.56
2023-03-22T12:37:09.174Z,100105.94
2023-03-22T12:39:42.100Z,100113.22
2023-03-22T12:42:18.698Z,100108.50
2023-03-22T12:45:02.243Z,100109.44
2023-03-22T12:47:41.500Z,100122.63
2023-03-22T12:50:14.798Z,100107.69
2023-03-22T12:52:47.104Z,100116.09
2023-03-22T12:55:23.838Z,100119.41
2023-03-22T12:57:54.396Z,100119.41
2023-03-22T13:00:22.999Z,100122.81
2023-03-22T13:02:59.757Z,100122.00
2023-03-22T13:05:29.663Z,100132.38
2023-03-22T13:08:03.370Z,100138.72
2023-03-22T13:11:01.139Z,100137.84
2023-03-22T13:13:42.379Z,100137.19
2023-03-22T13:16:19.260Z,100144.78
2023-03-22T13:19:03.144Z,100129.41
2023-03-22T13:21:34.763Z,100139.44
2023-03-22T13:24:21.405Z,100141.94
2023-03-22T13:26:51.398Z,100141.00
2023-03-22T13:29:21.796Z,100137.88
2023-03-22T13:31:58.276Z,100135.84
2023-03-22T13:34:38.444Z,100144.16
2023-03-22T13:37:10.811Z,100142.03
2023-03-22T13:39:39.271Z,100129.88
2023-03-22T13:42:19.678Z,100130.06
2023-03-22T13:44:56.930Z,100136.09
2023-03-22T13:47:36.834Z,100130.22
2023-03-22T13:50:12.981Z,100133.22
2023-03-22T13:52:43.239Z,100142.09
2023-03-22T13:55:41.133Z,100132.97
2023-03-22T13:58:11.700Z,100125.00
2023-03-22T14:00:44.669Z,100128.91
2023-03-22T14:03:17.464Z,100140.91
2023-03-22T14:05:49.337Z,100140.44
2023-03-22T14:08:28.066Z,100143.44
2023-03-22T14:10:59.284Z,100143.56
2023-03-22T14:13:32.539Z,100137.28
2023-03-22T14:16:05.584Z,100155.44
2023-03-22T14:18:36.017Z,100150.19
2023-03-22T14:21:08.989Z,100149.59
